createdAt,value
2023-02-05T00:00:42.191Z,-0.81
2023-02-05T00:04:43.941Z,-0.97
2023-02-05T00:08:45.485Z,-1.13
2023-02-05T00:12:47.068Z,-1.31
2023-02-05T00:16:49.057Z,-1.44
2023-02-05T00:20:50.672Z,-1.54
2023-02-05T00:24:52.231Z,-1.64
2023-02-05T00:28:54.261Z,-1.75
2023-02-05T00:32:55.837Z,-1.81
2023-02-05T00:36:58.914Z,-1.88
2023-02-05T00:41:00.505Z,-1.94
2023-02-05T00:45:02.009Z,-2.08
2023-02-05T00:49:03.826Z,-2.18
2023-02-05T00:53:05.390Z,-2.27
2023-02-05T00:57:07.054Z,-2.31
2023-02-05T01:01:08.724Z,-2.36
2023-02-05T01:05:10.502Z,-2.41
2023-02-05T01:09:12.117Z,-2.50
2023-02-05T01:13:15.823Z,-2.59
2023-02-05T01:17:19.014Z,-2.67
2023-02-05T01:21:20.706Z,-2.73
2023-02-05T01:25:22.402Z,-2.77
2023-02-05T01:29:25.451Z,-2.83
2023-02-05T01:33:27.260Z,-2.86
2023-02-05T01:37:29.123Z,-2.90
2023-02-05T01:41:31.716Z,-2.94
2023-02-05T01:45:50.717Z,-3.01
2023-02-05T01:49:53.559Z,-3.07
2023-02-05T01:53:55.438Z,-3.11
2023-02-05T01:58:00.006Z,-3.12
2023-02-05T02:02:06.516Z,-3.17
2023-02-05T02:06:09.341Z,-3.17
2023-02-05T02:10:14.823Z,-3.15
2023-02-05T02:14:17.573Z,-3.17
2023-02-05T02:18:28.613Z,-3.20
2023-02-05T02:22:54.771Z,-3.24
2023-02-05T02:27:16.795Z,-3.31
2023-02-05T02:31:30.406Z,-3.39
2023-02-05T02:35:43.416Z,-3.43
2023-02-05T02:40:00.730Z,-3.48
2023-02-05T02:44:16.956Z,-3.48
2023-02-05T02:48:23.503Z,-3.50
2023-02-05T02:52:27.256Z,-3.58
2023-02-05T02:56:32.065Z,-3.63
2023-02-05T03:00:34.335Z,-3.67
2023-02-05T03:04:44.389Z,-3.69
2023-02-05T03:09:00.230Z,-3.71
2023-02-05T03:13:02.312Z,-3.69
2023-02-05T03:17:04.885Z,-3.74
2023-02-05T03:21:16.590Z,-3.76
2023-02-05T03:25:21.370Z,-3.77
2023-02-05T03:29:28.817Z,-3.77
2023-02-05T03:33:44.828Z,-3.77
2023-02-05T03:38:08.835Z,-3.78
2023-02-05T03:42:26.881Z,-3.83
2023-02-05T03:46:36.835Z,-3.74
2023-02-05T03:51:17.985Z,-3.73
2023-02-05T03:55:23.908Z,-3.79
2023-02-05T03:59:28.781Z,-3.91
2023-02-05T04:03:30.570Z,-3.98
2023-02-05T04:07:32.947Z,-4.02
2023-02-05T04:11:35.054Z,-4.03
2023-02-05T04:15:39.214Z,-4.05
2023-02-05T04:19:44.068Z,-4.11
2023-02-05T04:23:48.595Z,-4.18
2023-02-05T04:27:50.810Z,-4.23
2023-02-05T04:31:53.399Z,-4.27
2023-02-05T04:35:59.205Z,-4.32
2023-02-05T04:40:00.897Z,-4.37
2023-02-05T04:44:02.554Z,-4.37
2023-02-05T04:48:06.478Z,-4.36
2023-02-05T04:52:07.980Z,-4.32
2023-02-05T04:56:13.312Z,-4.27
2023-02-05T05:00:15.332Z,-4.26
2023-02-05T05:04:16.797Z,-4.33
2023-02-05T05:08:19.152Z,-4.30
2023-02-05T05:12:20.857Z,-4.28
2023-02-05T05:16:22.437Z,-4.27
2023-02-05T05:20:23.992Z,-4.22
2023-02-05T05:24:25.707Z,-4.12
2023-02-05T05:28:27.545Z,-4.01
2023-02-05T05:32:29.068Z,-3.90
2023-02-05T05:36:30.682Z,-3.74
2023-02-05T05:40:55.805Z,-3.65
2023-02-05T05:44:57.341Z,-3.59
2023-02-05T05:49:00.823Z,-3.57
2023-02-05T05:53:02.495Z,-3.53
2023-02-05T05:57:04.507Z,-3.48
2023-02-05T06:01:07.303Z,-3.46
2023-02-05T06:05:08.822Z,-3.56
2023-02-05T06:09:10.631Z,-3.64
2023-02-05T06:13:12.396Z,-3.71
2023-02-05T06:17:13.891Z,-3.87
2023-02-05T06:21:15.519Z,-3.99
2023-02-05T06:25:17.927Z,-4.08
2023-02-05T06:29:19.488Z,-4.15
2023-02-05T06:33:21.071Z,-4.20
2023-02-05T06:37:34.128Z,-4.22
2023-02-05T06:41:47.056Z,-4.22
2023-02-05T06:45:48.666Z,-4.26
2023-02-05T06:49:50.323Z,-4.17
2023-02-05T06:53:53.672Z,-4.00
2023-02-05T06:57:55.218Z,-3.78
2023-02-05T07:01:56.728Z,-3.46
2023-02-05T07:06:05.324Z,-3.12
2023-02-05T07:10:07.198Z,-2.99
2023-02-05T07:14:08.757Z,-2.89
2023-02-05T07:18:10.233Z,-2.65
2023-02-05T07:22:15.468Z,-1.79
2023-02-05T07:26:18.085Z,-0.88
2023-02-05T07:30:19.824Z,-0.12
2023-02-05T07:34:21.373Z,0.56
2023-02-05T07:38:24.978Z,1.23
2023-02-05T07:42:26.452Z,2.16
2023-02-05T07:46:32.413Z,3.02
2023-02-05T07:50:33.933Z,2.71
2023-02-05T07:54:35.413Z,1.91
2023-02-05T07:58:36.905Z,1.35
2023-02-05T08:02:38.886Z,1.09
2023-02-05T08:06:40.581Z,0.76
2023-02-05T08:10:42.113Z,0.58
2023-02-05T08:14:44.020Z,0.41
2023-02-05T08:18:50.625Z,0.88
2023-02-05T08:22:52.454Z,0.89
2023-02-05T08:26:53.959Z,0.86
2023-02-05T08:30:56.427Z,0.86
2023-02-05T08:34:58.895Z,0.74
2023-02-05T08:39:00.579Z,0.90
2023-02-05T08:43:02.607Z,1.39
2023-02-05T08:47:04.187Z,1.85
2023-02-05T08:51:06.596Z,2.00
2023-02-05T08:55:08.441Z,2.12
2023-02-05T08:59:11.233Z,2.90
2023-02-05T09:03:12.771Z,2.69
2023-02-05T09:07:15.585Z,2.36
2023-02-05T09:11:21.732Z,2.10
2023-02-05T09:15:23.321Z,1.68
2023-02-05T09:19:24.835Z,1.69
2023-02-05T09:23:26.523Z,1.53
2023-02-05T09:27:28.520Z,1.49
2023-02-05T09:31:30.240Z,1.53
2023-02-05T09:35:33.014Z,1.52
2023-02-05T09:40:18.537Z,1.95
2023-02-05T09:44:15.550Z,2.90
2023-02-05T09:48:38.771Z,3.07
2023-02-05T09:52:44.869Z,3.53
2023-02-05T09:56:47.198Z,5.00
2023-02-05T10:00:53.298Z,5.24
2023-02-05T10:04:54.904Z,6.05
2023-02-05T10:09:04.281Z,6.55
2023-02-05T10:13:27.466Z,6.17
2023-02-05T10:18:00.609Z,6.20
2023-02-05T10:22:25.293Z,6.53
2023-02-05T10:26:33.775Z,6.29
2023-02-05T10:31:04.231Z,5.56
2023-02-05T10:35:18.754Z,5.97
2023-02-05T10:39:26.051Z,6.36
2023-02-05T10:43:34.193Z,6.16
2023-02-05T10:47:35.593Z,5.75
2023-02-05T10:51:41.265Z,6.67
2023-02-05T10:55:42.717Z,6.80
2023-02-05T10:59:55.250Z,6.36
2023-02-05T11:04:01.299Z,6.61
2023-02-05T11:08:04.214Z,7.04
2023-02-05T11:12:29.930Z,7.43
2023-02-05T11:16:40.929Z,7.58
2023-02-05T11:20:59.508Z,7.66
2023-02-05T11:25:05.730Z,7.74
2023-02-05T11:29:19.394Z,7.42
2023-02-05T11:33:21.863Z,6.72
2023-02-05T11:37:23.434Z,6.15
2023-02-05T11:41:31.008Z,6.41
2023-02-05T11:45:35.599Z,6.14
2023-02-05T11:49:40.796Z,5.93
2023-02-05T11:53:52.196Z,6.35
2023-02-05T11:58:05.153Z,7.44
2023-02-05T12:02:28.689Z,7.97
2023-02-05T12:06:37.017Z,8.40
2023-02-05T12:10:53.710Z,9.34
2023-02-05T12:15:18.151Z,8.55
2023-02-05T12:19:23.242Z,7.95
2023-02-05T12:23:52.776Z,8.61
2023-02-05T12:28:25.742Z,8.18
2023-02-05T12:32:36.626Z,8.33
2023-02-05T12:36:52.488Z,9.12
2023-02-05T12:41:21.901Z,8.71
2023-02-05T12:46:05.354Z,8.52
2023-02-05T12:50:18.714Z,7.96
2023-02-05T12:54:30.611Z,7.45
2023-02-05T12:58:45.886Z,6.20
2023-02-05T13:03:05.736Z,5.88
2023-02-05T13:07:29.367Z,5.56
2023-02-05T13:11:43.131Z,5.22
2023-02-05T13:15:51.925Z,5.04
2023-02-05T13:19:59.304Z,5.37
2023-02-05T13:24:36.260Z,5.31
2023-02-05T13:28:42.446Z,5.17
2023-02-05T13:32:50.184Z,5.66
2023-02-05T13:37:18.372Z,5.83
2023-02-05T13:41:42.949Z,6.07
2023-02-05T13:45:53.258Z,6.14
2023-02-05T13:50:20.763Z,6.82
2023-02-05T13:54:37.526Z,6.78
2023-02-05T13:58:56.547Z,7.33
2023-02-05T14:03:05.453Z,8.23
2023-02-05T14:07:17.737Z,8.88
2023-02-05T14:11:19.265Z,9.10
2023-02-05T14:15:23.218Z,8.14
2023-02-05T14:19:56.048Z,7.66
2023-02-05T14:24:25.828Z,6.70
2023-02-05T14:28:30.320Z,6.59
2023-02-05T14:32:31.933Z,6.95
2023-02-05T14:36:35.704Z,7.16
2023-02-05T14:40:38.637Z,7.32
2023-02-05T14:44:42.539Z,6.92
2023-02-05T14:48:48.155Z,6.87
2023-02-05T14:52:56.717Z,6.15
2023-02-05T14:57:32.070Z,5.42
2023-02-05T15:01:35.024Z,5.39
2023-02-05T15:05:49.050Z,5.04
2023-02-05T15:10:04.298Z,4.54
2023-02-05T15:14:21.412Z,4.32
2023-02-05T15:18:32.537Z,3.92
2023-02-05T15:22:40.956Z,3.48
2023-02-05T15:26:53.464Z,3.17
2023-02-05T15:31:09.781Z,2.99
2023-02-05T15:35:17.080Z,2.90
2023-02-05T15:39:31.070Z,2.78
2023-02-05T15:43:32.519Z,2.64
2023-02-05T15:47:34.132Z,2.45
2023-02-05T15:51:37.298Z,2.28
2023-02-05T15:55:39.691Z,2.07
2023-02-05T15:59:41.284Z,1.90
2023-02-05T16:03:42.787Z,1.80
2023-02-05T16:07:51.726Z,1.59
2023-02-05T16:11:53.907Z,1.32
2023-02-05T16:16:05.455Z,1.23
2023-02-05T16:20:20.095Z,1.07
2023-02-05T16:24:25.890Z,0.95
2023-02-05T16:28:39.817Z,0.96
2023-02-05T16:32:44.533Z,0.96
2023-02-05T16:36:48.842Z,0.93
2023-02-05T16:40:53.973Z,0.92
2023-02-05T16:45:10.844Z,0.92
2023-02-05T16:49:25.692Z,0.92
2023-02-05T16:53:33.305Z,0.90
2023-02-05T16:57:38.592Z,0.92
2023-02-05T17:01:44.056Z,0.92
2023-02-05T17:05:54.970Z,0.94
2023-02-05T17:10:14.706Z,0.81
2023-02-05T17:14:27.396Z,0.76
2023-02-05T17:18:31.092Z,0.72
2023-02-05T17:22:34.411Z,0.68
2023-02-05T17:26:40.922Z,0.65
2023-02-05T17:30:44.434Z,0.63
2023-02-05T17:34:47.137Z,0.62
2023-02-05T17:38:50.027Z,0.54
2023-02-05T17:42:51.495Z,0.47
2023-02-05T17:46:54.026Z,0.27
2023-02-05T17:50:59.113Z,0.26
2023-02-05T17:55:00.630Z,0.14
2023-02-05T17:59:02.153Z,-0.02
2023-02-05T18:03:03.868Z,-0.05
2023-02-05T18:07:19.288Z,-0.17
2023-02-05T18:17:20.245Z,-0.29
2023-02-05T18:21:55.946Z,-0.31
2023-02-05T18:27:04.050Z,-0.30
2023-02-05T18:31:08.320Z,-0.36
2023-02-05T18:35:40.723Z,-0.38
2023-02-05T18:41:02.891Z,-0.44
2023-02-05T18:45:04.674Z,-0.47
2023-02-05T18:49:06.130Z,-0.45
2023-02-05T18:53:57.766Z,-0.50
2023-02-05T18:58:49.479Z,-0.53
2023-02-05T19:02:51.004Z,-0.69
2023-02-05T19:06:58.756Z,-0.79
2023-02-05T19:11:09.711Z,-0.81
2023-02-05T19:15:12.049Z,-0.86
2023-02-05T19:19:18.671Z,-0.86
2023-02-05T19:23:20.624Z,-1.00
2023-02-05T19:27:22.289Z,-0.99
2023-02-05T19:31:33.653Z,-0.98
2023-02-05T19:35:36.218Z,-0.95
2023-02-05T19:39:39.289Z,-0.94
2023-02-05T19:43:52.935Z,-0.93
2023-02-05T19:48:16.169Z,-1.03
2023-02-05T19:52:18.592Z,-1.17
2023-02-05T19:56:23.931Z,-1.19
2023-02-05T20:01:15.628Z,-1.28
2023-02-05T20:05:43.956Z,-1.27
2023-02-05T20:10:23.443Z,-1.25
2023-02-05T20:14:30.428Z,-1.39
2023-02-05T20:18:32.115Z,-1.37
2023-02-05T20:23:26.824Z,-1.39
2023-02-05T20:28:19.964Z,-1.52
2023-02-05T20:32:22.688Z,-1.69
2023-02-05T20:36:24.406Z,-1.72
2023-02-05T20:40:26.022Z,-1.74
2023-02-05T20:44:31.741Z,-1.71
2023-02-05T20:49:03.780Z,-1.77
2023-02-05T20:53:39.942Z,-1.82
2023-02-05T20:58:31.460Z,-1.90
2023-02-05T21:02:34.473Z,-2.04
2023-02-05T21:06:39.101Z,-2.11
2023-02-05T21:11:30.689Z,-2.25
2023-02-05T21:15:59.261Z,-2.41
2023-02-05T21:20:00.790Z,-2.50
2023-02-05T21:24:06.684Z,-2.65
2023-02-05T21:28:08.250Z,-2.72
2023-02-05T21:32:10.063Z,-2.88
2023-02-05T21:36:12.119Z,-2.98
2023-02-05T21:40:15.200Z,-3.07
2023-02-05T21:44:50.833Z,-3.07
2023-02-05T21:48:55.484Z,-3.09
2023-02-05T21:52:56.947Z,-3.19
2023-02-05T21:56:58.795Z,-3.30
2023-02-05T22:01:13.970Z,-3.29
2023-02-05T22:05:15.596Z,-3.24
2023-02-05T22:09:17.481Z,-3.16
2023-02-05T22:13:19.096Z,-3.18
2023-02-05T22:17:54.809Z,-3.18
2023-02-05T22:21:56.519Z,-3.27
2023-02-05T22:26:28.010Z,-3.26
2023-02-05T22:30:31.947Z,-3.32
2023-02-05T22:34:33.673Z,-3.43
2023-02-05T22:38:37.936Z,-3.51
2023-02-05T22:42:40.479Z,-3.55
2023-02-05T22:46:44.057Z,-3.56
2023-02-05T22:50:45.914Z,-3.57
2023-02-05T22:54:47.465Z,-3.60
2023-02-05T22:58:50.045Z,-3.62
2023-02-05T23:02:51.733Z,-3.63
2023-02-05T23:06:53.307Z,-3.64
2023-02-05T23:10:54.875Z,-3.67
2023-02-05T23:14:56.262Z,-3.73
2023-02-05T23:19:00.707Z,-3.76
2023-02-05T23:23:02.508Z,-3.76
2023-02-05T23:27:05.621Z,-3.82
2023-02-05T23:31:07.509Z,-3.86
2023-02-05T23:35:09.239Z,-3.91
2023-02-05T23:39:10.902Z,-3.96
2023-02-05T23:43:12.349Z,-3.96
2023-02-05T23:47:13.915Z,-3.98
2023-02-05T23:51:15.511Z,-4.09
2023-02-05T23:55:17.143Z,-4.08
2023-02-05T23:59:18.863Z,-4.12
